Time;durP1;ratioP1;P1;durP2;ratioP2;P2;SDS_P1;SDS_P2;PMS_P1;PMS_P2;Temp;Humidity;BMP_temperature;BMP_pressure;BME280_temperature;BME280_humidity;BME280_pressure;Samples;Min_cycle;Max_cycle;Signal;HPM_P1;HPM_P2
2022/09/12 00:01:10;;;;;;;9.23;8.13;;;;;;;12.27;100.00;98308.31;5103168;28;20245;-65
2022/09/12 00:03:38;;;;;;;10.73;8.83;;;;;;;12.24;100.00;98308.56;5100602;28;20253;-65
2022/09/12 00:06:09;;;;;;;9.60;8.60;;;;;;;12.21;100.00;98298.16;5100638;28;20530;-65
2022/09/12 00:08:36;;;;;;;11.30;8.60;;;;;;;12.18;100.00;98293.09;5102865;28;20666;-64
2022/09/12 00:11:06;;;;;;;12.00;8.90;;;;;;;12.11;100.00;98298.00;5100602;28;20222;-65
2022/09/12 00:13:33;;;;;;;10.93;9.37;;;;;;;12.13;100.00;98296.09;5101006;28;20226;-64
2022/09/12 00:16:00;;;;;;;14.20;10.97;;;;;;;12.17;100.00;98296.72;5103514;28;20257;-65
2022/09/12 00:18:28;;;;;;;12.73;10.37;;;;;;;12.22;100.00;98291.94;5106768;28;20273;-64
2022/09/12 00:20:55;;;;;;;12.00;10.13;;;;;;;12.24;100.00;98290.00;5105761;28;20225;-64
2022/09/12 00:23:22;;;;;;;14.07;10.97;;;;;;;12.25;100.00;98289.03;5104455;28;20325;-65
2022/09/12 00:25:49;;;;;;;14.80;10.67;;;;;;;12.27;100.00;98289.75;5104205;28;20227;-64
2022/09/12 00:28:17;;;;;;;12.70;10.87;;;;;;;12.33;100.00;98286.66;5106590;28;20660;-64
2022/09/12 00:30:46;;;;;;;13.63;10.77;;;;;;;12.31;100.00;98278.00;5105565;28;20515;-65
2022/09/12 00:33:15;;;;;;;14.47;10.60;;;;;;;12.36;100.00;98297.06;5104206;28;20296;-66
2022/09/12 00:35:44;;;;;;;14.13;11.03;;;;;;;12.37;100.00;98288.16;5104052;28;20223;-65
2022/09/12 00:38:12;;;;;;;14.57;11.53;;;;;;;12.37;100.00;98285.50;5105353;28;20230;-65
2022/09/12 00:40:40;;;;;;;13.67;11.23;;;;;;;12.39;100.00;98283.56;5104833;28;20234;-65
2022/09/12 00:43:12;;;;;;;16.13;11.47;;;;;;;12.34;100.00;98277.78;5104083;28;20246;-65
2022/09/12 00:45:41;;;;;;;14.03;11.50;;;;;;;12.34;100.00;98277.78;5103884;28;20223;-65
2022/09/12 00:48:18;;;;;;;13.20;10.13;;;;;;;12.32;100.00;98269.94;5099295;28;20305;-66
2022/09/12 00:50:46;;;;;;;12.33;10.20;;;;;;;12.32;100.00;98271.72;5092858;28;20611;-64
2022/09/12 00:53:13;;;;;;;13.30;10.17;;;;;;;12.32;100.00;98277.03;5103849;28;20733;-64
2022/09/12 00:55:43;;;;;;;12.27;10.13;;;;;;;12.32;100.00;98274.38;5104843;28;20219;-65
2022/09/12 00:58:14;;;;;;;15.17;11.13;;;;;;;12.26;100.00;98264.22;5106375;28;20249;-64
2022/09/12 01:00:41;;;;;;;12.83;10.57;;;;;;;12.22;100.00;98262.78;5103624;28;20580;-65
2022/09/12 01:03:11;;;;;;;14.73;11.10;;;;;;;12.21;100.00;98269.88;5101723;28;20647;-66
2022/09/12 01:05:43;;;;;;;13.20;10.57;;;;;;;12.23;100.00;98261.81;5105895;28;20262;-64
2022/09/12 01:08:12;;;;;;;13.03;10.30;;;;;;;12.25;100.00;98262.53;5104706;28;20282;-64
2022/09/12 01:10:41;;;;;;;12.37;9.97;;;;;;;12.25;100.00;98257.25;5103321;28;20224;-66
2022/09/12 01:13:09;;;;;;;13.13;10.30;;;;;;;12.25;100.00;98257.25;5103256;28;20244;-65
2022/09/12 01:15:37;;;;;;;11.70;10.03;;;;;;;12.28;100.00;98251.72;5106751;28;20230;-65
2022/09/12 01:18:16;;;;;;;12.70;10.67;;;;;;;12.35;100.00;98258.25;5103801;28;20227;-66
2022/09/12 01:20:54;;;;;;;13.53;10.63;;;;;;;12.29;100.00;98256.06;5103246;28;20222;-65
2022/09/12 01:23:57;;;;;;;14.33;11.00;;;;;;;12.29;100.00;98254.25;5103710;28;20245;-64
2022/09/12 01:26:58;;;;;;;13.83;11.13;;;;;;;12.38;100.00;98247.41;5076537;28;20226;-64
2022/09/12 01:29:48;;;;;;;14.97;11.23;;;;;;;12.35;100.00;98250.31;5104904;28;20225;-64
2022/09/12 01:32:25;;;;;;;12.77;10.20;;;;;;;12.23;100.00;98240.63;5093282;28;20671;-64
2022/09/12 01:35:00;;;;;;;12.40;10.43;;;;;;;12.21;100.00;98245.16;5103191;28;20226;-64
2022/09/12 01:37:34;;;;;;;13.67;10.30;;;;;;;12.18;100.00;98240.94;5105811;28;20261;-64
2022/09/12 01:40:10;;;;;;;15.53;11.33;;;;;;;12.14;100.00;98238.63;5103118;28;20218;-64
2022/09/12 01:42:45;;;;;;;14.20;11.23;;;;;;;12.15;100.00;98237.69;5102843;28;20532;-64
2022/09/12 01:45:18;;;;;;;14.93;11.30;;;;;;;12.14;100.00;98238.63;5099020;28;20228;-64
2022/09/12 01:47:49;;;;;;;16.97;11.00;;;;;;;12.17;100.00;98233.94;5102795;28;20537;-64
2022/09/12 01:50:19;;;;;;;13.47;10.80;;;;;;;12.17;100.00;98233.13;5102776;28;20229;-64
2022/09/12 01:52:50;;;;;;;14.30;11.73;;;;;;;12.13;100.00;98231.66;5104388;28;20324;-64
2022/09/12 01:55:21;;;;;;;13.87;11.53;;;;;;;12.10;100.00;98221.28;5102664;28;20257;-64
2022/09/12 01:57:54;;;;;;;17.37;12.33;;;;;;;12.09;100.00;98227.53;5102670;28;20245;-64
2022/09/12 02:00:21;;;;;;;15.43;11.43;;;;;;;12.02;100.00;98224.50;5102543;28;20248;-64
2022/09/12 02:02:55;;;;;;;13.70;10.97;;;;;;;11.98;100.00;98216.91;5105878;28;20277;-64
2022/09/12 02:05:28;;;;;;;13.00;10.43;;;;;;;11.93;100.00;98227.81;5090692;28;20280;-64
2022/09/12 02:08:01;;;;;;;12.33;10.17;;;;;;;11.85;100.00;98222.22;5102422;28;20226;-63
2022/09/12 02:10:32;;;;;;;12.87;11.00;;;;;;;11.79;100.00;98219.19;5104128;28;20660;-64
2022/09/12 02:13:01;;;;;;;13.97;10.87;;;;;;;11.73;100.00;98215.19;5104087;28;20222;-64
2022/09/12 02:15:34;;;;;;;15.03;10.73;;;;;;;11.67;100.00;98222.75;5102392;28;20354;-63
2022/09/12 02:18:05;;;;;;;14.53;10.47;;;;;;;11.67;100.00;98218.28;5102418;28;20230;-64
2022/09/12 02:20:36;;;;;;;13.53;10.97;;;;;;;11.68;100.00;98209.38;5104273;28;20222;-63
2022/09/12 02:23:08;;;;;;;12.23;9.97;;;;;;;11.64;100.00;98223.81;5095559;28;20327;-63
2022/09/12 02:25:40;;;;;;;16.07;10.83;;;;;;;11.55;100.00;98213.00;5102038;28;20222;-64
2022/09/12 02:28:10;;;;;;;12.20;10.03;;;;;;;11.50;100.00;98213.31;5103404;28;20624;-64
2022/09/12 02:30:42;;;;;;;13.13;10.37;;;;;;;11.52;100.00;98213.19;5104243;28;20261;-64
2022/09/12 02:33:20;;;;;;;12.77;10.27;;;;;;;11.50;100.00;98215.94;5101901;28;20223;-63
2022/09/12 02:35:53;;;;;;;12.87;10.27;;;;;;;11.50;100.00;98209.81;5101894;28;20310;-63
2022/09/12 02:38:26;;;;;;;13.50;10.43;;;;;;;11.49;100.00;98208.97;5097960;28;20527;-64
2022/09/12 02:40:53;;;;;;;10.57;9.37;;;;;;;11.48;100.00;98206.41;5101750;28;20227;-63
2022/09/12 02:43:20;;;;;;;11.83;9.67;;;;;;;11.47;100.00;98210.03;5101627;28;20258;-63
2022/09/12 02:45:47;;;;;;;9.57;8.20;;;;;;;11.42;100.00;98206.88;5102633;28;20264;-64
2022/09/12 02:48:20;;;;;;;11.27;9.10;;;;;;;11.40;100.00;98209.63;5103039;28;20274;-63
2022/09/12 02:50:47;;;;;;;10.67;8.60;;;;;;;11.30;100.00;98207.72;5101575;28;20257;-63
2022/09/12 02:53:14;;;;;;;11.20;9.13;;;;;;;11.24;100.00;98202.88;5101582;28;20286;-64
2022/09/12 02:55:41;;;;;;;10.53;8.90;;;;;;;11.23;100.00;98212.63;5103056;28;20568;-64
2022/09/12 02:58:13;;;;;;;10.97;9.43;;;;;;;11.20;100.00;98204.88;5103867;28;20297;-64
2022/09/12 03:00:49;;;;;;;10.43;8.90;;;;;;;11.20;100.00;98204.06;5101512;28;20287;-64
2022/09/12 03:03:31;;;;;;;12.20;9.77;;;;;;;11.21;100.00;98203.09;5101526;28;20280;-64
2022/09/12 03:06:00;;;;;;;13.20;10.63;;;;;;;11.21;100.00;98197.81;5098559;28;20531;-64
2022/09/12 03:08:47;;;;;;;14.07;11.00;;;;;;;11.24;100.00;98197.59;5101532;28;20276;-63
2022/09/12 03:11:30;;;;;;;15.07;10.70;;;;;;;11.28;100.00;98194.63;5101554;28;20254;-64
2022/09/12 03:14:06;;;;;;;17.43;11.60;;;;;;;11.28;100.00;98196.41;5101622;28;20225;-63
2022/09/12 03:16:40;;;;;;;16.77;11.87;;;;;;;11.29;100.00;98195.47;5101260;28;20329;-64
2022/09/12 03:19:16;;;;;;;15.57;11.83;;;;;;;11.30;100.00;98197.16;5101315;28;20268;-64
2022/09/12 03:21:52;;;;;;;14.97;11.77;;;;;;;11.31;100.00;98196.22;5102297;28;20645;-63
2022/09/12 03:24:26;;;;;;;15.00;11.00;;;;;;;11.24;100.00;98197.59;5101068;28;20225;-63
2022/09/12 03:26:56;;;;;;;14.20;10.93;;;;;;;11.16;100.00;98205.22;5101123;28;20296;-64
2022/09/12 03:29:26;;;;;;;14.67;11.50;;;;;;;11.12;100.00;98203.75;5096296;28;20225;-64
2022/09/12 03:31:54;;;;;;;14.87;10.67;;;;;;;11.14;100.00;98207.97;5108756;28;20589;-63
2022/09/12 03:34:24;;;;;;;12.87;9.43;;;;;;;11.17;100.00;98204.25;5101050;28;20337;-64
2022/09/12 03:36:54;;;;;;;15.00;11.47;;;;;;;11.21;100.00;98203.97;5101583;28;20258;-64
2022/09/12 03:39:23;;;;;;;13.60;10.73;;;;;;;11.21;100.00;98203.09;5102496;28;20654;-63
2022/09/12 03:41:49;;;;;;;13.97;10.57;;;;;;;11.18;100.00;98204.16;5100875;28;20539;-64
2022/09/12 03:44:16;;;;;;;13.47;10.60;;;;;;;11.17;100.00;98206.91;5101038;28;20280;-64
2022/09/12 03:46:43;;;;;;;11.63;10.03;;;;;;;11.12;100.00;98209.06;5101538;28;20266;-65
2022/09/12 03:49:10;;;;;;;11.37;9.47;;;;;;;11.04;100.00;98209.59;5105968;28;20228;-64
2022/09/12 03:51:38;;;;;;;12.93;10.27;;;;;;;10.98;100.00;98217.09;5105267;28;20256;-64
2022/09/12 03:54:06;;;;;;;13.30;10.50;;;;;;;10.98;100.00;98214.44;5105119;28;20261;-66
2022/09/12 03:56:33;;;;;;;15.77;10.50;;;;;;;10.96;100.00;98209.25;5105783;28;20683;-64
2022/09/12 03:59:00;;;;;;;13.20;10.57;;;;;;;11.00;100.00;98209.91;5108309;28;20221;-65
2022/09/12 04:01:26;;;;;;;12.17;10.13;;;;;;;11.06;100.00;98209.47;5105146;28;20269;-63
2022/09/12 04:03:53;;;;;;;15.20;11.37;;;;;;;11.02;100.00;98210.63;5104703;28;20279;-63
2022/09/12 04:06:22;;;;;;;15.23;11.33;;;;;;;11.04;100.00;98216.66;5103505;28;20268;-63
2022/09/12 04:08:51;;;;;;;14.60;11.73;;;;;;;10.98;100.00;98206.50;5108099;28;20287;-63
2022/09/12 04:11:20;;;;;;;16.03;11.80;;;;;;;10.94;100.00;98210.34;5104639;28;20231;-63
2022/09/12 04:13:47;;;;;;;15.60;11.80;;;;;;;10.88;100.00;98205.47;5104659;28;20636;-63
2022/09/12 04:16:15;;;;;;;15.00;11.80;;;;;;;10.90;100.00;98203.56;5105421;28;20267;-63
2022/09/12 04:18:42;;;;;;;15.70;12.30;;;;;;;10.87;100.00;98201.97;5107747;28;20265;-63
2022/09/12 04:21:10;;;;;;;16.33;11.27;;;;;;;10.92;100.00;98206.94;5104530;28;20576;-63
2022/09/12 04:23:37;;;;;;;16.00;12.33;;;;;;;10.88;100.00;98208.13;5104374;28;20270;-63
2022/09/12 04:26:06;;;;;;;16.40;12.13;;;;;;;10.89;100.00;98201.88;5105301;28;20643;-63
2022/09/12 04:28:34;;;;;;;17.33;12.83;;;;;;;10.88;100.00;98200.19;5107181;28;20236;-63
2022/09/12 04:31:02;;;;;;;16.37;12.07;;;;;;;10.86;100.00;98202.06;5102459;28;20584;-63
2022/09/12 04:33:29;;;;;;;17.97;12.90;;;;;;;10.82;100.00;98206.72;5104239;28;20229;-63
2022/09/12 04:35:56;;;;;;;17.93;12.50;;;;;;;10.86;100.00;98204.72;5105434;28;20283;-63
2022/09/12 04:38:23;;;;;;;17.47;11.97;;;;;;;10.83;100.00;98195.19;5107077;28;20260;-63
2022/09/12 04:40:50;;;;;;;17.97;13.33;;;;;;;10.77;100.00;98192.97;5104060;28;20222;-63
2022/09/12 04:43:18;;;;;;;17.20;11.83;;;;;;;10.79;100.00;98191.09;5103992;28;20250;-63
2022/09/12 04:45:44;;;;;;;17.57;12.80;;;;;;;10.80;100.00;98191.91;5104993;28;20257;-62
2022/09/12 04:48:11;;;;;;;19.13;13.00;;;;;;;10.80;100.00;98190.13;5106957;28;20274;-63
2022/09/12 04:50:38;;;;;;;18.20;12.60;;;;;;;10.79;100.00;98191.09;5103919;28;20631;-63
2022/09/12 04:53:04;;;;;;;19.30;12.80;;;;;;;10.88;100.00;98189.59;5103726;28;20671;-63
2022/09/12 04:55:34;;;;;;;15.43;11.80;;;;;;;10.93;100.00;98196.25;5099491;28;20588;-63
2022/09/12 04:58:01;;;;;;;17.47;11.90;;;;;;;10.91;100.00;98190.25;5102116;28;20228;-64
2022/09/12 05:00:29;;;;;;;16.40;12.07;;;;;;;10.91;100.00;98192.03;5103784;28;20314;-63
2022/09/12 05:02:55;;;;;;;15.57;11.70;;;;;;;10.90;100.00;98192.97;5103726;28;20280;-63
2022/09/12 05:05:22;;;;;;;19.23;13.00;;;;;;;10.88;100.00;98190.44;5104407;28;20227;-63
2022/09/12 05:07:49;;;;;;;20.03;13.10;;;;;;;10.93;100.00;98193.59;5107197;28;20255;-63
2022/09/12 05:10:17;;;;;;;18.33;12.77;;;;;;;11.00;100.00;98188.75;5103645;28;20233;-63
2022/09/12 05:12:43;;;;;;;17.00;12.63;;;;;;;11.00;100.00;98194.88;5103812;28;20222;-63
2022/09/12 05:15:10;;;;;;;18.57;13.03;;;;;;;11.04;100.00;98192.84;5103924;28;20227;-63
2022/09/12 05:17:38;;;;;;;19.47;13.97;;;;;;;11.04;100.00;98192.84;5106985;28;20269;-63
2022/09/12 05:20:06;;;;;;;19.17;13.87;;;;;;;11.04;100.00;98196.34;5103508;28;20262;-63
2022/09/12 05:22:33;;;;;;;17.40;13.13;;;;;;;11.11;100.00;98196.75;5100708;28;20221;-63
2022/09/12 05:25:00;;;;;;;19.70;12.60;;;;;;;11.12;100.00;98188.72;5103680;28;20254;-63
2022/09/12 05:27:26;;;;;;;20.23;14.67;;;;;;;11.15;100.00;98198.25;5106925;28;20261;-62
2022/09/12 05:29:53;;;;;;;20.30;13.50;;;;;;;11.16;100.00;98198.16;5091359;28;20550;-62
2022/09/12 05:32:19;;;;;;;18.93;13.03;;;;;;;11.25;100.00;98199.28;5102968;28;20283;-63
2022/09/12 05:34:48;;;;;;;17.93;13.33;;;;;;;11.27;100.00;98200.03;5103001;28;20230;-64
2022/09/12 05:37:15;;;;;;;18.43;13.40;;;;;;;11.35;100.00;98197.66;5098840;28;20535;-63
2022/09/12 05:39:41;;;;;;;18.87;13.80;;;;;;;11.39;100.00;98201.81;5102974;28;20632;-63
2022/09/12 05:42:08;;;;;;;20.67;13.30;;;;;;;11.44;100.00;98199.69;5102924;28;20260;-63
2022/09/12 05:44:35;;;;;;;19.00;12.73;;;;;;;11.51;100.00;98200.94;5102790;28;20285;-63
2022/09/12 05:47:02;;;;;;;18.10;13.10;;;;;;;11.58;100.00;98210.09;5106415;28;20630;-63
2022/09/12 05:49:29;;;;;;;17.30;12.90;;;;;;;11.65;100.00;98204.31;5101484;28;20261;-63
2022/09/12 05:51:57;;;;;;;18.80;13.43;;;;;;;11.75;100.00;98201.84;5102894;28;20286;-63
2022/09/12 05:54:23;;;;;;;17.30;12.70;;;;;;;11.80;100.00;98211.13;5102689;28;20500;-63
2022/09/12 05:56:50;;;;;;;18.43;13.20;;;;;;;11.90;100.00;98209.50;5106019;28;20642;-63
2022/09/12 05:59:19;;;;;;;17.70;12.63;;;;;;;11.94;100.00;98210.97;5103342;28;20320;-64
2022/09/12 06:01:46;;;;;;;16.83;13.07;;;;;;;12.01;100.00;98216.66;5102543;28;20249;-63
2022/09/12 06:04:13;;;;;;;19.23;13.60;;;;;;;12.04;100.00;98211.97;5102435;28;20288;-63
2022/09/12 06:06:42;;;;;;;18.07;13.07;;;;;;;12.13;100.00;98210.47;5105786;28;20222;-64
2022/09/12 06:09:11;;;;;;;17.57;13.57;;;;;;;12.24;100.00;98213.16;5110709;28;20225;-63
2022/09/12 06:11:40;;;;;;;18.10;12.77;;;;;;;12.30;100.00;98212.69;5101967;28;20265;-63
2022/09/12 06:14:08;;;;;;;16.23;13.27;;;;;;;12.38;100.00;98210.31;5101536;28;20223;-63
2022/09/12 06:16:36;;;;;;;17.40;12.60;;;;;;;12.43;100.00;98208.16;5097749;28;20291;-63
2022/09/12 06:19:05;;;;;;;17.90;12.47;;;;;;;12.55;100.00;98207.25;5090321;28;20296;-63
2022/09/12 06:21:34;;;;;;;16.63;12.63;;;;;;;12.64;100.00;98201.22;5102216;28;20685;-63
2022/09/12 06:24:01;;;;;;;15.33;12.43;;;;;;;12.75;100.00;98198.59;5102289;28;20245;-63
2022/09/12 06:26:30;;;;;;;16.20;12.90;;;;;;;12.79;100.00;98211.53;5105391;28;20274;-63
2022/09/12 06:28:59;;;;;;;17.40;12.30;;;;;;;12.88;100.00;98204.66;5102227;28;20297;-63
2022/09/12 06:31:28;;;;;;;14.77;11.77;;;;;;;12.96;100.00;98208.44;5102112;28;20259;-63
2022/09/12 06:33:57;;;;;;;14.67;11.53;;;;;;;13.05;100.00;98204.22;5103255;28;20232;-65
2022/09/12 06:36:25;;;;;;;15.27;11.10;;;;;;;13.14;100.00;98203.53;5104783;28;20237;-63
2022/09/12 06:38:56;;;;;;;14.43;11.27;;;;;;;13.23;100.00;98210.75;5102066;28;20269;-63
2022/09/12 06:41:24;;;;;;;13.23;11.27;;;;;;;13.34;100.00;98203.66;5100259;28;20261;-63
2022/09/12 06:43:52;;;;;;;13.27;10.60;;;;;;;13.42;100.00;98205.69;5103520;28;20547;-63
2022/09/12 06:46:19;;;;;;;13.07;11.53;;;;;;;13.49;100.00;98212.19;5103777;28;20255;-63
2022/09/12 06:48:46;;;;;;;12.07;9.80;;;;;;;13.57;100.00;98210.59;5101820;28;20257;-63
2022/09/12 06:51:15;;;;;;;12.90;10.57;;;;;;;13.66;100.00;98209.88;5101556;28;20267;-63
2022/09/12 06:53:43;;;;;;;12.27;10.20;;;;;;;13.77;100.00;98211.69;5103688;28;20293;-63
2022/09/12 06:56:11;;;;;;;13.50;10.47;;;;;;;13.88;100.00;98219.63;5103134;28;20271;-63
2022/09/12 06:58:38;;;;;;;10.63;9.53;;;;;;;13.92;100.00;98215.72;5101159;28;20260;-63
2022/09/12 07:01:09;;;;;;;11.47;10.03;;;;;;;14.00;100.00;98213.31;5101000;28;20221;-63
2022/09/12 07:03:36;;;;;;;11.63;10.07;;;;;;;14.10;100.00;98219.56;5103334;28;20244;-63
2022/09/12 07:06:05;;;;;;;11.03;9.60;;;;;;;14.13;100.00;98219.31;5102400;28;20227;-63
2022/09/12 07:08:31;;;;;;;11.77;9.97;;;;;;;14.23;100.00;98221.13;5099185;28;20224;-63
2022/09/12 07:10:59;;;;;;;11.50;10.20;;;;;;;14.29;100.00;98225.09;5101356;28;20311;-63
2022/09/12 07:13:26;;;;;;;12.97;9.77;;;;;;;14.42;100.00;98220.47;5103889;28;20226;-63
2022/09/12 07:15:53;;;;;;;12.03;10.00;;;;;;;14.50;100.00;98207.34;5100875;28;20228;-62
2022/09/12 07:18:22;;;;;;;11.23;10.00;;;;;;;14.60;100.00;98209.09;5098373;28;20318;-64
2022/09/12 07:20:49;;;;;;;11.93;9.43;;;;;;;14.68;100.00;98205.81;5096795;28;20225;-64
2022/09/12 07:23:15;;;;;;;12.60;10.37;;;;;;;14.80;100.00;98210.09;5097306;28;20677;-63
2022/09/12 07:25:42;;;;;;;12.03;10.73;;;;;;;14.91;100.00;98212.69;5097846;28;20515;-64
2022/09/12 07:28:09;;;;;;;14.03;10.57;;;;;;;14.94;100.00;98217.75;5109559;28;20257;-63
2022/09/12 07:30:37;;;;;;;13.20;11.03;;;;;;;15.02;100.00;98215.28;5110610;28;20319;-64
2022/09/12 07:33:03;;;;;;;11.30;9.87;;;;;;;15.10;100.00;98213.63;5108207;28;20228;-64
2022/09/12 07:35:33;;;;;;;11.60;9.80;;;;;;;15.22;100.00;98215.22;5108900;28;20252;-64
2022/09/12 07:38:00;;;;;;;12.17;9.90;;;;;;;15.34;100.00;98216.03;5107734;28;20218;-62
2022/09/12 07:40:27;;;;;;;12.40;10.30;;;;;;;15.49;100.00;98212.03;5110267;28;20525;-62
2022/09/12 07:42:53;;;;;;;11.23;10.03;;;;;;;15.56;100.00;98215.84;5110636;28;20622;-64
2022/09/12 07:45:20;;;;;;;11.77;9.73;;;;;;;15.66;100.00;98216.72;5108677;28;20281;-64
2022/09/12 07:47:47;;;;;;;12.10;9.90;;;;;;;15.78;100.00;98218.31;5106482;28;20269;-64
2022/09/12 07:50:14;;;;;;;10.47;9.13;;;;;;;15.88;100.00;98217.34;5110624;28;20265;-63
2022/09/12 07:52:42;;;;;;;10.43;9.33;;;;;;;16.01;100.00;98214.44;5110547;28;20558;-62
2022/09/12 07:55:09;;;;;;;11.50;9.53;;;;;;;16.10;100.00;98217.94;5107900;28;20306;-63
2022/09/12 07:57:36;;;;;;;11.00;9.37;;;;;;;16.18;100.00;98218.13;5107134;28;20238;-63
2022/09/12 08:00:04;;;;;;;10.10;9.07;;;;;;;16.22;100.00;98216.84;5108746;28;20572;-61
2022/09/12 08:02:31;;;;;;;9.63;8.47;;;;;;;16.33;100.00;98218.56;5109670;28;20282;-64
2022/09/12 08:04:58;;;;;;;9.17;8.27;;;;;;;16.37;100.00;98215.47;5108509;28;20670;-64
2022/09/12 08:07:24;;;;;;;9.17;8.17;;;;;;;16.46;100.00;98214.63;5106720;28;20227;-64
2022/09/12 08:09:53;;;;;;;9.90;8.40;;;;;;;16.55;100.00;98213.81;5109505;28;20570;-63
2022/09/12 08:12:20;;;;;;;8.43;7.63;;;;;;;16.72;100.00;98221.13;5110423;28;20314;-62
2022/09/12 08:14:47;;;;;;;8.50;7.20;;;;;;;16.80;100.00;98215.91;5108692;28;20300;-62
2022/09/12 08:17:14;;;;;;;8.70;7.80;;;;;;;16.97;100.00;98220.50;5105696;28;20643;-63
2022/09/12 08:19:40;;;;;;;7.57;6.87;;;;;;;17.15;100.00;98218.78;5088781;28;20232;-62
2022/09/12 08:22:07;;;;;;;8.30;7.40;;;;;;;17.29;100.00;98218.31;5104672;28;20250;-64
2022/09/12 08:24:34;;;;;;;8.20;7.37;;;;;;;17.55;100.00;98215.88;5107149;28;20246;-62
2022/09/12 08:27:02;;;;;;;8.30;7.50;;;;;;;17.64;99.98;98209.63;5105639;28;20258;-63
2022/09/12 08:29:28;;;;;;;8.07;6.73;;;;;;;17.72;99.40;98207.03;5089070;28;20598;-62
2022/09/12 08:31:55;;;;;;;6.80;6.10;;;;;;;17.88;96.02;98204.56;5111143;28;20225;-62
2022/09/12 08:34:23;;;;;;;6.67;5.77;;;;;;;18.03;93.81;98208.41;5110595;28;20269;-62
2022/09/12 08:36:53;;;;;;;7.50;6.63;;;;;;;18.18;92.28;98210.44;5110916;28;20375;-63
2022/09/12 08:39:20;;;;;;;6.93;6.23;;;;;;;18.32;90.98;98217.13;5092677;28;20222;-62
2022/09/12 08:41:48;;;;;;;8.10;5.97;;;;;;;18.42;88.37;98212.56;5108688;28;20262;-63
2022/09/12 08:44:37;;;;;;;6.57;5.10;;;;;;;18.66;88.88;98218.97;5110780;28;20274;-62
2022/09/12 08:47:22;;;;;;;5.53;4.40;;;;;;;18.78;86.71;98220.41;5113582;28;20257;-62
2022/09/12 08:50:00;;;;;;;4.73;4.33;;;;;;;18.89;86.78;98206.78;5114609;28;20458;-62
2022/09/12 08:52:30;;;;;;;5.20;4.70;;;;;;;19.00;85.34;98209.22;5103258;28;20582;-62
2022/09/12 08:54:57;;;;;;;5.60;5.10;;;;;;;19.07;83.40;98204.06;5113751;28;20258;-62
2022/09/12 08:57:24;;;;;;;5.57;4.97;;;;;;;19.03;83.14;98203.53;5109509;28;20254;-63
2022/09/12 08:59:52;;;;;;;5.67;5.17;;;;;;;19.20;82.81;98202.66;5109021;28;20265;-62
2022/09/12 09:02:59;;;;;;;6.20;5.60;;;;;;;19.25;83.07;98203.03;5109154;28;20535;-62
2022/09/12 09:05:37;;;;;;;6.07;5.47;;;;;;;19.38;83.77;98195.41;5094315;28;20324;-63
2022/09/12 09:08:21;;;;;;;6.17;5.40;;;;;;;19.44;81.78;98199.31;5110152;28;20261;-62
2022/09/12 09:10:51;;;;;;;6.20;5.57;;;;;;;19.54;80.62;98203.56;5091167;28;20222;-63
2022/09/12 09:16:25;;;;;;;5.67;5.17;;;;;;;19.68;81.13;98196.75;5106349;28;20226;-63
2022/09/12 09:18:55;;;;;;;6.07;5.47;;;;;;;19.74;79.04;98183.53;5111006;28;20261;-63
2022/09/12 09:21:25;;;;;;;6.07;5.20;;;;;;;19.83;79.80;98189.75;5112891;28;20578;-62
2022/09/12 09:23:59;;;;;;;6.93;4.93;;;;;;;19.87;78.26;98200.00;5108754;28;20270;-62
2022/09/12 09:26:31;;;;;;;5.63;5.03;;;;;;;19.87;77.03;98197.31;5112023;28;20310;-63
2022/09/12 09:29:02;;;;;;;5.20;4.70;;;;;;;19.93;77.26;98194.00;5112484;28;20610;-63
2022/09/12 09:31:35;;;;;;;5.07;4.57;;;;;;;20.00;76.15;98191.50;5111285;28;20230;-63
2022/09/12 09:34:12;;;;;;;4.90;4.50;;;;;;;20.06;76.69;98183.66;5109696;28;20252;-63
2022/09/12 09:36:48;;;;;;;4.70;4.30;;;;;;;20.18;76.08;98187.72;5112309;28;20267;-63
2022/09/12 09:39:25;;;;;;;5.27;4.77;;;;;;;20.32;73.03;98189.78;5111584;28;20279;-63
2022/09/12 09:42:02;;;;;;;5.03;4.57;;;;;;;20.42;74.05;98193.13;5108981;28;20309;-63
2022/09/12 09:44:30;;;;;;;4.63;4.10;;;;;;;20.49;73.78;98190.63;5112074;28;20259;-63
2022/09/12 09:46:59;;;;;;;5.73;4.83;;;;;;;20.57;73.51;98196.00;5109575;28;20222;-63
2022/09/12 09:49:28;;;;;;;5.03;4.47;;;;;;;20.67;72.65;98194.84;5108466;28;20268;-63
2022/09/12 09:51:56;;;;;;;4.60;4.13;;;;;;;20.83;67.61;98194.84;5110479;28;20274;-62
2022/09/12 09:54:26;;;;;;;6.27;4.37;;;;;;;20.97;66.87;98188.81;5111895;28;20326;-62
2022/09/12 09:56:52;;;;;;;4.47;4.07;;;;;;;20.93;68.57;98192.00;5104682;28;20575;-63
2022/09/12 09:59:26;;;;;;;3.73;3.20;;;;;;;21.06;66.37;98190.50;5102843;28;20697;-63
2022/09/12 10:01:55;;;;;;;3.97;3.67;;;;;;;21.19;67.27;98201.56;5111344;28;20644;-62
2022/09/12 10:04:26;;;;;;;4.17;3.87;;;;;;;21.34;65.81;98191.78;5111579;28;20662;-63
2022/09/12 10:06:56;;;;;;;4.00;3.50;;;;;;;21.48;64.79;98193.78;5110279;28;20226;-63
2022/09/12 10:09:25;;;;;;;3.90;3.60;;;;;;;21.58;64.91;98186.34;5108168;28;20283;-63
2022/09/12 10:11:54;;;;;;;4.53;4.10;;;;;;;21.63;62.97;98177.78;5109870;28;20500;-62
2022/09/12 10:14:34;;;;;;;4.23;3.83;;;;;;;21.71;63.71;98183.16;5111531;28;20260;-62
2022/09/12 10:17:02;;;;;;;3.33;3.07;;;;;;;21.86;62.05;98176.00;5102499;28;20222;-63
2022/09/12 10:19:39;;;;;;;3.43;3.13;;;;;;;21.95;60.13;98172.28;5110148;28;20218;-63
2022/09/12 10:22:07;;;;;;;4.10;3.70;;;;;;;22.02;59.04;98174.09;5106014;28;20226;-63
2022/09/12 10:24:36;;;;;;;3.93;3.53;;;;;;;22.00;59.81;98177.97;5107519;28;20273;-63
2022/09/12 10:27:13;;;;;;;4.70;3.50;;;;;;;22.08;59.86;98173.34;5107751;28;20223;-63
2022/09/12 10:29:47;;;;;;;3.73;3.43;;;;;;;22.16;59.46;98181.41;5111316;28;20288;-63
2022/09/12 10:32:23;;;;;;;3.70;2.90;;;;;;;22.29;60.17;98183.50;5111332;28;20497;-63
2022/09/12 10:34:56;;;;;;;3.80;3.47;;;;;;;22.43;58.13;98177.41;5102976;28;20233;-63
2022/09/12 10:37:26;;;;;;;3.50;3.20;;;;;;;22.53;56.48;98173.47;5089699;28;20657;-62
2022/09/12 10:39:55;;;;;;;4.40;3.17;;;;;;;22.65;57.33;98168.47;5109634;28;20234;-63
2022/09/12 10:42:42;;;;;;;3.30;3.00;;;;;;;22.71;55.81;98165.91;5108991;28;20620;-62
2022/09/12 10:45:18;;;;;;;3.30;3.00;;;;;;;22.85;56.92;98157.03;5110708;28;20277;-62
2022/09/12 10:47:46;;;;;;;3.20;2.90;;;;;;;22.93;55.26;98158.81;5110946;28;20304;-62
2022/09/12 10:50:26;;;;;;;4.13;3.30;;;;;;;22.99;54.48;98158.91;5109118;28;20265;-62
2022/09/12 10:52:53;;;;;;;3.33;3.13;;;;;;;23.03;54.45;98154.84;5109610;28;20329;-62
2022/09/12 10:55:28;;;;;;;3.40;2.90;;;;;;;22.99;53.06;98150.81;5110862;28;20257;-62
2022/09/12 10:58:12;;;;;;;3.07;2.80;;;;;;;22.96;52.56;98153.91;5110378;28;20225;-63
2022/09/12 11:00:45;;;;;;;3.00;2.77;;;;;;;22.93;53.39;98148.03;5108282;28;20223;-62
2022/09/12 11:03:19;;;;;;;3.10;2.80;;;;;;;23.01;53.66;98145.25;5110824;28;20225;-63
2022/09/12 11:05:53;;;;;;;3.30;3.00;;;;;;;23.11;53.99;98141.25;5108433;28;20772;-63
2022/09/12 11:08:43;;;;;;;2.83;2.63;;;;;;;23.15;52.92;98137.19;5106892;28;20267;-63
2022/09/12 11:11:23;;;;;;;3.10;2.83;;;;;;;23.13;53.85;98133.00;5097198;28;20270;-63
2022/09/12 11:14:05;;;;;;;3.10;2.80;;;;;;;23.15;52.86;98136.34;5106924;28;20615;-63
2022/09/12 11:16:39;;;;;;;4.70;3.27;;;;;;;23.23;52.57;98129.03;5109391;28;20268;-63
2022/09/12 11:19:33;;;;;;;3.10;2.80;;;;;;;23.26;51.44;98122.44;5110430;28;20640;-63
2022/09/12 11:22:19;;;;;;;2.60;2.40;;;;;;;23.27;53.50;98124.97;5102045;28;20222;-63
2022/09/12 11:25:13;;;;;;;2.80;2.60;;;;;;;23.44;52.01;98120.22;5092449;28;20277;-63
2022/09/12 11:27:54;;;;;;;2.43;2.23;;;;;;;23.51;52.23;98119.28;5107763;28;20257;-63
2022/09/12 11:30:22;;;;;;;2.60;2.40;;;;;;;23.58;50.96;98106.72;5108925;28;20265;-63
2022/09/12 11:33:16;;;;;;;2.60;2.40;;;;;;;23.58;48.47;98111.28;5108954;28;20226;-63
2022/09/12 11:35:48;;;;;;;2.70;2.30;;;;;;;23.63;49.21;98103.44;5101797;28;20257;-63